createdAt,value
2023-04-13T00:04:58.555Z,39.42
2023-04-13T00:10:03.984Z,39.70
2023-04-13T00:15:10.696Z,31.73
2023-04-13T00:20:15.820Z,39.70
2023-04-13T00:25:20.179Z,43.60
2023-04-13T00:30:25.588Z,35.42
2023-04-13T00:35:29.478Z,32.92
2023-04-13T00:40:37.824Z,31.90
2023-04-13T00:45:43.493Z,33.90
2023-04-13T00:50:48.475Z,36.70
2023-04-13T00:55:53.326Z,34.00
2023-04-13T01:00:58.697Z,34.47
2023-04-13T01:11:21.044Z,36.20
2023-04-13T01:16:32.265Z,29.02
2023-04-13T01:21:40.686Z,36.10
2023-04-13T01:26:54.589Z,39.05
2023-04-13T01:32:02.906Z,30.13
2023-04-13T01:37:09.132Z,30.17
2023-04-13T01:42:13.525Z,29.43
2023-04-13T01:47:25.701Z,27.63
2023-04-13T01:52:44.683Z,28.52
2023-04-13T01:57:55.152Z,24.20
2023-04-13T02:03:01.897Z,32.20
2023-04-13T02:08:07.529Z,29.73
2023-04-13T02:13:16.179Z,32.85
2023-04-13T02:18:25.812Z,21.50
2023-04-13T02:23:31.510Z,22.30
2023-04-13T02:28:36.247Z,18.33
2023-04-13T02:33:43.785Z,27.43
2023-04-13T02:38:47.880Z,22.25
2023-04-13T02:44:01.743Z,25.40
2023-04-13T02:49:13.488Z,26.77
2023-04-13T02:54:28.613Z,45.47
2023-04-13T02:59:34.035Z,36.97
2023-04-13T03:04:43.356Z,22.48
2023-04-13T03:09:53.705Z,50.00
2023-04-13T03:15:03.797Z,42.30
2023-04-13T03:20:13.427Z,22.58
2023-04-13T03:25:22.588Z,20.05
2023-04-13T03:30:26.788Z,19.55
2023-04-13T03:35:36.181Z,33.90
2023-04-13T03:40:43.497Z,22.70
2023-04-13T03:45:48.306Z,23.80
2023-04-13T03:50:56.316Z,25.05
2023-04-13T03:56:07.201Z,27.30
2023-04-13T04:01:12.282Z,41.28
2023-04-13T04:06:27.234Z,24.77
2023-04-13T04:11:43.552Z,18.10
2023-04-13T04:16:49.200Z,17.98
2023-04-13T04:21:58.074Z,19.40
2023-04-13T04:27:07.820Z,21.08
2023-04-13T04:32:12.960Z,16.37
2023-04-13T04:37:22.878Z,15.93
2023-04-13T04:42:46.393Z,16.60
2023-04-13T04:48:06.395Z,15.57
2023-04-13T04:53:15.043Z,15.50
2023-04-13T04:58:22.393Z,17.33
2023-04-13T05:03:34.580Z,64.72
2023-04-13T05:08:58.057Z,15.75
2023-04-13T05:14:04.155Z,14.23
2023-04-13T05:19:09.767Z,15.75
2023-04-13T05:24:28.008Z,23.98
2023-04-13T05:29:35.570Z,18.92
2023-04-13T05:34:39.921Z,10.40
2023-04-13T05:39:56.569Z,12.88
2023-04-13T05:45:10.655Z,11.32
2023-04-13T05:50:26.065Z,12.45
2023-04-13T05:55:31.523Z,19.83
2023-04-13T06:00:40.117Z,16.65
2023-04-13T06:05:49.538Z,14.02
2023-04-13T06:10:54.948Z,15.70
2023-04-13T06:15:59.134Z,14.88
2023-04-13T06:21:03.729Z,14.43
2023-04-13T06:26:12.469Z,10.52
2023-04-13T06:31:27.740Z,8.82
2023-04-13T06:36:35.034Z,8.70
2023-04-13T06:41:41.615Z,10.00
2023-04-13T06:46:53.507Z,8.80
2023-04-13T06:51:59.464Z,9.23
2023-04-13T06:57:05.297Z,8.88
2023-04-13T07:02:10.788Z,7.85
2023-04-13T07:12:21.922Z,6.93
2023-04-13T07:17:26.398Z,7.70
2023-04-13T07:22:33.822Z,7.47
2023-04-13T07:27:39.453Z,6.85
2023-04-13T07:32:43.713Z,6.85
2023-04-13T07:37:52.168Z,7.72
2023-04-13T07:42:59.581Z,7.28
2023-04-13T07:48:06.915Z,6.63
2023-04-13T07:53:13.357Z,7.25
2023-04-13T07:58:22.005Z,7.33
2023-04-13T08:03:26.423Z,6.00
2023-04-13T08:08:30.715Z,6.80
2023-04-13T08:13:36.875Z,6.90
2023-04-13T08:18:41.433Z,6.15
2023-04-13T08:28:53.948Z,5.25
2023-04-13T08:33:58.169Z,5.65
2023-04-13T08:39:02.944Z,6.22
2023-04-13T08:44:10.194Z,5.65
2023-04-13T08:49:17.807Z,5.18
2023-04-13T08:54:46.385Z,5.15
2023-04-13T09:00:11.567Z,5.60
2023-04-13T09:05:17.078Z,4.88
2023-04-13T09:10:27.727Z,5.13
2023-04-13T09:15:33.853Z,4.80
2023-04-13T09:21:01.690Z,4.97
2023-04-13T09:26:07.351Z,5.28
2023-04-13T09:36:21.844Z,4.93
2023-04-13T09:41:33.607Z,5.13
2023-04-13T09:46:39.322Z,5.00
2023-04-13T09:56:48.352Z,4.65
2023-04-13T10:01:54.908Z,7.30
2023-04-13T10:06:59.461Z,4.95
2023-04-13T10:12:06.207Z,4.50
2023-04-13T10:17:36.256Z,3.70
2023-04-13T10:22:47.323Z,4.15
2023-04-13T10:27:59.275Z,3.77
2023-04-13T10:33:08.398Z,3.17
2023-04-13T10:38:15.335Z,3.50
2023-04-13T10:43:28.522Z,2.90
2023-04-13T10:48:34.478Z,3.20
2023-04-13T10:53:38.647Z,3.33
2023-04-13T10:58:43.398Z,3.70
2023-04-13T11:04:01.259Z,3.83
2023-04-13T11:09:13.151Z,3.33
2023-04-13T11:14:39.496Z,2.90
2023-04-13T11:19:50.585Z,2.75
2023-04-13T11:24:55.080Z,2.78
2023-04-13T11:30:05.418Z,2.40
2023-04-13T11:35:27.306Z,2.40
2023-04-13T11:40:31.731Z,3.03
2023-04-13T11:45:35.782Z,2.63
2023-04-13T11:50:41.844Z,2.80
2023-04-13T11:55:53.452Z,2.47
2023-04-13T12:01:03.284Z,3.00
2023-04-13T12:06:10.671Z,2.47
2023-04-13T12:11:40.487Z,2.70
2023-04-13T12:21:56.748Z,2.20
2023-04-13T12:32:15.096Z,2.72
2023-04-13T12:37:20.741Z,2.40
2023-04-13T12:42:24.640Z,2.70
2023-04-13T12:47:28.625Z,2.83
2023-04-13T12:52:34.231Z,2.90
2023-04-13T12:57:39.788Z,2.30
2023-04-13T13:02:44.324Z,2.78
2023-04-13T13:07:49.740Z,2.67
2023-04-13T13:12:54.352Z,2.60
2023-04-13T13:18:00.941Z,2.30
2023-04-13T13:23:06.828Z,2.03
2023-04-13T13:28:14.519Z,2.60
2023-04-13T13:33:19.908Z,2.80
2023-04-13T13:38:25.754Z,2.35
2023-04-13T13:43:29.974Z,2.38
2023-04-13T13:48:34.276Z,2.10
2023-04-13T13:54:15.352Z,2.33
2023-04-13T13:59:19.586Z,2.67
2023-04-13T14:04:23.636Z,3.05
2023-04-13T14:09:30.206Z,2.55
2023-04-13T14:14:36.376Z,2.60
2023-04-13T14:19:40.511Z,2.50
2023-04-13T14:24:46.550Z,2.38
2023-04-13T14:29:50.568Z,2.83
2023-04-13T14:34:54.892Z,2.30
2023-04-13T14:40:00.447Z,2.30
2023-04-13T14:45:05.377Z,2.60
2023-04-13T14:50:15.825Z,2.60
2023-04-13T14:55:22.982Z,2.60
2023-04-13T15:00:39.055Z,3.70
2023-04-13T15:05:46.257Z,3.60
2023-04-13T15:10:52.057Z,3.92
2023-04-13T15:15:56.800Z,3.60
2023-04-13T15:21:03.290Z,2.92
2023-04-13T15:26:09.038Z,3.40
2023-04-13T15:31:15.844Z,3.20
2023-04-13T15:36:19.963Z,3.88
2023-04-13T15:41:27.668Z,3.47
2023-04-13T15:46:33.565Z,3.60
2023-04-13T15:51:45.360Z,3.28
2023-04-13T15:56:51.678Z,3.05
2023-04-13T16:01:55.761Z,3.92
2023-04-13T16:12:08.730Z,5.22
2023-04-13T16:17:13.324Z,6.07
2023-04-13T16:22:18.058Z,7.87
2023-04-13T16:27:23.616Z,7.15
2023-04-13T16:32:27.920Z,5.50
2023-04-13T16:37:32.273Z,6.53
2023-04-13T16:42:38.030Z,6.53
2023-04-13T16:47:42.411Z,6.68
2023-04-13T16:52:50.325Z,6.40
2023-04-13T16:57:57.523Z,6.20
2023-04-13T17:03:02.458Z,5.10
2023-04-13T17:08:09.927Z,5.97
2023-04-13T17:13:15.457Z,4.63
2023-04-13T17:23:24.946Z,6.18
2023-04-13T17:28:30.819Z,7.20
2023-04-13T17:33:35.447Z,7.82
2023-04-13T17:38:40.566Z,9.65
2023-04-13T17:44:15.844Z,11.35
2023-04-13T17:49:22.918Z,12.90
2023-04-13T17:54:27.440Z,13.57
2023-04-13T17:59:33.406Z,10.90
2023-04-13T18:04:37.757Z,8.82
2023-04-13T18:09:42.190Z,9.35
2023-04-13T18:14:47.956Z,8.23
2023-04-13T18:20:01.008Z,9.43
2023-04-13T18:25:06.411Z,11.18
2023-04-13T18:30:13.438Z,12.75
2023-04-13T18:35:17.842Z,13.48
2023-04-13T18:40:22.081Z,13.00
2023-04-13T18:45:27.773Z,11.82
2023-04-13T18:50:32.042Z,11.23
2023-04-13T18:55:36.381Z,11.52
2023-04-13T19:00:42.156Z,11.23
2023-04-13T19:10:50.589Z,12.75
2023-04-13T19:15:57.800Z,14.07
2023-04-13T19:21:02.721Z,15.73
2023-04-13T19:26:07.006Z,15.33
2023-04-13T19:31:13.117Z,16.42
2023-04-13T19:36:17.297Z,15.55
2023-04-13T19:41:21.372Z,21.88
2023-04-13T19:46:29.462Z,18.58
2023-04-13T19:51:33.693Z,17.02
2023-04-13T19:56:38.108Z,27.92
2023-04-13T20:01:46.113Z,24.42
2023-04-13T20:06:50.538Z,43.40
2023-04-13T20:11:54.837Z,28.60
2023-04-13T20:17:00.459Z,47.13
2023-04-13T20:27:10.250Z,23.67
2023-04-13T20:32:16.047Z,23.58
2023-04-13T20:37:20.426Z,22.77
2023-04-13T20:42:25.040Z,20.02
2023-04-13T20:47:32.209Z,20.13
2023-04-13T20:52:36.819Z,21.70
2023-04-13T20:57:44.276Z,25.00
2023-04-13T21:02:50.207Z,53.00
2023-04-13T21:07:56.902Z,45.15
2023-04-13T21:13:01.747Z,28.08
2023-04-13T21:18:07.342Z,42.33
2023-04-13T21:23:11.923Z,50.53
2023-04-13T21:28:15.929Z,23.67
2023-04-13T21:33:21.512Z,23.92
2023-04-13T21:38:25.659Z,34.20
2023-04-13T21:43:29.803Z,34.67
2023-04-13T21:48:35.171Z,49.33
2023-04-13T21:53:40.179Z,39.15
2023-04-13T21:58:45.432Z,25.60
2023-04-13T22:03:53.490Z,27.40
2023-04-13T22:08:58.115Z,22.35
2023-04-13T22:14:02.225Z,27.52
2023-04-13T22:19:07.516Z,25.38
2023-04-13T22:24:12.810Z,32.42
2023-04-13T22:29:16.964Z,27.50
2023-04-13T22:34:22.747Z,30.55
2023-04-13T22:39:26.719Z,33.22
2023-04-13T22:44:34.169Z,28.35
2023-04-13T22:49:39.516Z,26.17
2023-04-13T22:54:43.503Z,30.48
2023-04-13T22:59:47.649Z,30.30
2023-04-13T23:04:52.996Z,25.88
2023-04-13T23:09:57.171Z,23.98
2023-04-13T23:15:01.124Z,20.77
2023-04-13T23:20:08.173Z,22.35
2023-04-13T23:25:12.280Z,20.02
2023-04-13T23:30:16.476Z,21.20
2023-04-13T23:35:21.912Z,20.50
2023-04-13T23:40:26.013Z,20.40
2023-04-13T23:45:30.102Z,23.80
2023-04-13T23:50:35.388Z,34.15
2023-04-13T23:55:39.340Z,23.70
